Time;durP1;ratioP1;P1;durP2;ratioP2;P2;SDS_P1;SDS_P2;PMS_P1;PMS_P2;Temp;Humidity;BMP_temperature;BMP_pressure;BME280_temperature;BME280_humidity;BME280_pressure;Samples;Min_cycle;Max_cycle;Signal;HPM_P1;HPM_P2
2023/06/02 00:01:31;;;;;;;0.60;0.60;;;;;;;15.25;97.73;96871.66;5102104;28;20131;-60
2023/06/02 00:04:04;;;;;;;0.65;0.65;;;;;;;15.08;98.83;96861.34;5103729;28;20051;-61
2023/06/02 00:06:33;;;;;;;0.70;0.70;;;;;;;15.09;98.45;96851.78;5103586;28;20056;-60
2023/06/02 00:09:04;;;;;;;0.63;0.63;;;;;;;15.21;97.98;96870.88;5104048;28;20292;-60
2023/06/02 00:11:34;;;;;;;0.65;0.65;;;;;;;15.12;98.82;96868.53;5103550;28;20138;-59
2023/06/02 00:14:03;;;;;;;0.60;0.60;;;;;;;15.01;97.51;96862.19;5103760;28;20480;-59
2023/06/02 00:16:33;;;;;;;0.60;0.60;;;;;;;14.92;98.25;96872.97;5103186;28;20052;-60
2023/06/02 00:19:00;;;;;;;0.60;0.60;;;;;;;14.82;98.63;96870.19;5103849;28;20065;-61
2023/06/02 00:21:27;;;;;;;0.60;0.60;;;;;;;14.71;99.45;96869.44;5103265;28;20052;-59
2023/06/02 00:23:54;;;;;;;0.60;0.60;;;;;;;14.33;99.51;96825.69;5103571;28;20055;-59
2023/06/02 00:26:20;;;;;;;0.70;0.70;;;;;;;14.60;99.84;96868.66;5101773;28;20040;-60
2023/06/02 00:28:47;;;;;;;0.68;0.68;;;;;;;14.73;98.02;96870.59;5102560;28;20047;-60
2023/06/02 00:31:14;;;;;;;0.60;0.60;;;;;;;14.59;97.57;96834.41;5104005;28;20078;-61
2023/06/02 00:33:41;;;;;;;0.60;0.60;;;;;;;14.26;95.99;96797.81;5107529;28;20140;-61
2023/06/02 00:36:08;;;;;;;0.60;0.60;;;;;;;14.62;97.33;96855.13;5107017;28;20047;-61
2023/06/02 00:38:35;;;;;;;0.60;0.60;;;;;;;14.10;98.40;96801.00;5106859;28;20496;-62
2023/06/02 00:41:02;;;;;;;0.60;0.60;;;;;;;14.53;99.09;96863.06;5106552;28;20545;-60
2023/06/02 00:43:29;;;;;;;0.60;0.60;;;;;;;14.54;98.67;96856.31;5092462;27;20048;-62
2023/06/02 00:45:55;;;;;;;0.60;0.60;;;;;;;14.50;99.52;96859.09;5086635;28;20047;-59
2023/06/02 00:48:22;;;;;;;0.60;0.60;;;;;;;14.58;99.80;96859.88;5086979;28;20479;-59
2023/06/02 00:50:49;;;;;;;0.60;0.60;;;;;;;14.67;99.54;96863.03;5086425;28;20048;-60
2023/06/02 00:53:16;;;;;;;0.60;0.60;;;;;;;14.23;99.42;96781.88;5086420;28;20514;-60
2023/06/02 00:55:43;;;;;;;0.60;0.60;;;;;;;14.66;98.99;96847.53;5086166;28;20052;-60
2023/06/02 00:58:13;;;;;;;0.60;0.60;;;;;;;14.72;98.95;96843.94;5084787;28;20494;-59
2023/06/02 01:00:43;;;;;;;0.60;0.60;;;;;;;14.42;97.76;96806.56;5086368;28;20044;-60
2023/06/02 01:03:13;;;;;;;0.60;0.60;;;;;;;14.23;97.96;96770.72;5086378;28;20457;-60
2023/06/02 01:05:43;;;;;;;0.60;0.60;;;;;;;14.68;97.85;96848.75;5085972;28;20594;-60
2023/06/02 01:08:12;;;;;;;0.60;0.60;;;;;;;14.70;97.38;96839.97;5086176;28;20059;-59
2023/06/02 01:10:40;;;;;;;0.60;0.60;;;;;;;14.52;97.51;96828.84;5085952;28;20047;-60
2023/06/02 01:13:07;;;;;;;0.60;0.60;;;;;;;14.20;98.51;96794.63;5086534;28;20058;-60
2023/06/02 01:15:34;;;;;;;0.70;0.70;;;;;;;14.54;98.41;96842.38;5086000;28;20055;-60
2023/06/02 01:18:05;;;;;;;0.60;0.60;;;;;;;14.59;97.29;96850.34;5086179;28;20047;-60
2023/06/02 01:20:32;;;;;;;0.60;0.60;;;;;;;14.42;97.15;96848.34;5085864;28;20063;-61
2023/06/02 01:23:16;;;;;;;0.60;0.60;;;;;;;14.47;97.22;96843.19;5085387;28;20058;-59
2023/06/02 01:25:44;;;;;;;0.60;0.60;;;;;;;14.47;96.60;96843.19;5085124;28;20126;-59
2023/06/02 01:28:12;;;;;;;0.60;0.60;;;;;;;14.10;95.43;96784.28;5083704;28;20048;-59
2023/06/02 01:30:39;;;;;;;0.60;0.60;;;;;;;14.40;95.54;96843.19;5085096;28;20066;-60
2023/06/02 01:33:15;;;;;;;0.50;0.50;;;;;;;13.66;95.42;96742.94;5085743;28;20578;-61
2023/06/02 01:35:45;;;;;;;0.60;0.60;;;;;;;14.38;95.68;96840.03;5086144;28;20441;-60
2023/06/02 01:38:14;;;;;;;0.60;0.60;;;;;;;14.17;96.63;96833.63;5085787;28;20055;-61
2023/06/02 01:40:42;;;;;;;0.60;0.60;;;;;;;14.22;97.40;96844.38;5084265;28;20063;-61
2023/06/02 01:43:10;;;;;;;0.60;0.60;;;;;;;14.09;96.55;96815.31;5096135;28;20592;-61
2023/06/02 01:45:38;;;;;;;0.60;0.60;;;;;;;14.16;97.86;96838.41;5104401;28;20530;-62
2023/06/02 01:48:06;;;;;;;0.60;0.60;;;;;;;13.60;97.08;96738.16;5105082;28;20051;-62
2023/06/02 01:50:35;;;;;;;0.60;0.60;;;;;;;14.25;96.56;96838.03;5105685;28;20061;-61
2023/06/02 01:53:03;;;;;;;0.60;0.60;;;;;;;14.13;96.86;96838.41;5104144;28;20059;-60
2023/06/02 01:55:30;;;;;;;0.57;0.57;;;;;;;14.06;97.15;96832.84;5081821;28;20079;-60
2023/06/02 01:57:56;;;;;;;0.60;0.60;;;;;;;13.47;98.68;96751.69;5065085;28;20114;-61
2023/06/02 02:00:23;;;;;;;0.60;0.60;;;;;;;13.69;96.96;96775.53;5064809;28;20438;-60
2023/06/02 02:02:50;;;;;;;0.60;0.60;;;;;;;14.09;95.63;96837.59;5063322;28;20053;-61
2023/06/02 02:05:18;;;;;;;0.60;0.60;;;;;;;13.99;95.14;96835.63;5063285;28;20056;-61
2023/06/02 02:07:47;;;;;;;0.60;0.60;;;;;;;13.99;95.46;96843.97;5063358;28;20131;-63
2023/06/02 02:10:14;;;;;;;0.60;0.60;;;;;;;13.84;95.60;96834.00;5063159;28;20517;-61
2023/06/02 02:12:41;;;;;;;0.60;0.60;;;;;;;13.85;95.42;96833.63;5064634;28;20052;-60
2023/06/02 02:15:09;;;;;;;0.60;0.60;;;;;;;13.78;96.16;96838.38;5064908;28;20067;-60
2023/06/02 02:17:44;;;;;;;0.50;0.50;;;;;;;13.59;97.45;96826.41;5063552;28;20139;-61
2023/06/02 02:20:16;;;;;;;0.55;0.55;;;;;;;13.53;97.25;96816.09;5063900;28;20052;-61
2023/06/02 02:22:45;;;;;;;0.60;0.60;;;;;;;13.58;97.87;96827.63;5063770;28;20092;-61
2023/06/02 02:25:12;;;;;;;0.50;0.50;;;;;;;13.54;97.10;96824.06;5063069;28;20048;-61
2023/06/02 02:27:39;;;;;;;0.60;0.60;;;;;;;13.52;97.84;96826.44;5063508;28;20044;-61
2023/06/02 02:30:07;;;;;;;0.50;0.50;;;;;;;13.68;97.84;96839.97;5063370;28;20048;-60
2023/06/02 02:32:44;;;;;;;0.60;0.60;;;;;;;13.59;98.69;96842.34;5063426;28;20055;-61
2023/06/02 02:35:11;;;;;;;0.50;0.50;;;;;;;13.55;99.60;96839.53;5063337;28;20048;-61
2023/06/02 02:37:38;;;;;;;0.50;0.50;;;;;;;13.63;99.54;96832.81;5063989;28;20126;-61
2023/06/02 02:40:13;;;;;;;0.50;0.50;;;;;;;13.71;96.69;96839.16;5063792;28;20113;-61
2023/06/02 02:42:40;;;;;;;0.60;0.60;;;;;;;13.60;96.68;96828.03;5063746;28;20499;-61
2023/06/02 02:45:08;;;;;;;0.55;0.55;;;;;;;13.61;98.18;96832.41;5062579;28;20052;-62
2023/06/02 02:47:35;;;;;;;0.50;0.50;;;;;;;13.62;99.26;96830.41;5063992;28;20051;-61
2023/06/02 02:50:02;;;;;;;0.60;0.60;;;;;;;13.61;99.11;96828.81;5062456;28;20439;-60
2023/06/02 02:52:29;;;;;;;0.60;0.60;;;;;;;13.59;97.36;96840.34;5063662;28;20083;-60
2023/06/02 02:54:56;;;;;;;0.60;0.60;;;;;;;13.70;96.21;96849.50;5062347;28;20048;-62
2023/06/02 02:57:23;;;;;;;0.50;0.50;;;;;;;13.62;95.97;96833.19;5064071;28;20054;-61
2023/06/02 02:59:49;;;;;;;0.60;0.60;;;;;;;13.59;96.72;96829.19;5062751;28;20064;-61
2023/06/02 03:02:16;;;;;;;0.50;0.50;;;;;;;13.65;96.21;96830.44;5064106;28;20515;-61
2023/06/02 03:04:43;;;;;;;0.60;0.60;;;;;;;13.36;97.83;96834.34;5062467;28;20088;-60
2023/06/02 03:07:10;;;;;;;0.50;0.50;;;;;;;13.35;99.06;96835.53;5064075;28;20060;-61
2023/06/02 03:09:39;;;;;;;0.55;0.55;;;;;;;13.27;98.98;96831.13;5063498;28;20052;-61
2023/06/02 03:12:06;;;;;;;0.52;0.52;;;;;;;13.43;99.67;96831.59;5062665;28;20052;-61
2023/06/02 03:14:33;;;;;;;0.60;0.60;;;;;;;13.51;97.56;96835.94;5063390;28;20055;-61
2023/06/02 03:17:00;;;;;;;0.60;0.60;;;;;;;13.52;98.12;96831.19;5064051;28;20564;-60
2023/06/02 03:19:27;;;;;;;0.60;0.60;;;;;;;13.55;96.95;96839.53;5063568;28;20052;-61
2023/06/02 03:21:56;;;;;;;0.60;0.60;;;;;;;13.58;96.58;96827.63;5063610;28;20134;-60
2023/06/02 03:24:23;;;;;;;0.60;0.60;;;;;;;13.24;96.50;96770.72;5063342;28;20446;-61
2023/06/02 03:26:51;;;;;;;0.60;0.60;;;;;;;13.47;95.90;96779.50;5063215;28;20053;-61
2023/06/02 03:29:19;;;;;;;0.60;0.60;;;;;;;13.76;95.35;96835.19;5062214;28;20518;-62
2023/06/02 03:31:46;;;;;;;0.60;0.60;;;;;;;13.93;93.56;96829.66;5063638;28;20152;-60
2023/06/02 03:34:13;;;;;;;0.50;0.50;;;;;;;13.68;93.36;96790.66;5062190;28;20049;-61
2023/06/02 03:36:39;;;;;;;0.55;0.55;;;;;;;14.04;93.93;96821.28;5063342;28;20133;-61
2023/06/02 03:39:12;;;;;;;0.60;0.60;;;;;;;14.12;94.09;96820.09;5063065;28;20596;-63
2023/06/02 03:41:39;;;;;;;0.60;0.60;;;;;;;14.25;93.90;96824.09;5063254;28;20052;-61
2023/06/02 03:44:06;;;;;;;0.55;0.55;;;;;;;14.39;92.23;96824.06;5063072;28;20045;-61
2023/06/02 03:46:33;;;;;;;0.60;0.60;;;;;;;14.47;91.83;96814.50;5063145;28;20067;-61
2023/06/02 03:49:00;;;;;;;0.60;0.60;;;;;;;14.59;90.91;96816.91;5063430;28;20049;-60
2023/06/02 03:51:27;;;;;;;0.60;0.60;;;;;;;14.66;89.02;96828.00;5061769;28;20048;-61
2023/06/02 03:53:53;;;;;;;0.60;0.60;;;;;;;14.61;90.37;96825.63;5063679;28;20079;-61
2023/06/02 03:56:20;;;;;;;0.70;0.70;;;;;;;14.68;90.69;96825.63;5063370;28;20053;-61
2023/06/02 03:58:47;;;;;;;0.60;0.60;;;;;;;14.82;89.83;96825.59;5063367;28;20071;-61
2023/06/02 04:01:15;;;;;;;0.60;0.60;;;;;;;14.78;90.43;96822.00;5061584;28;20052;-61
2023/06/02 04:03:43;;;;;;;0.60;0.60;;;;;;;14.18;90.03;96729.38;5063414;28;20139;-60
2023/06/02 04:06:11;;;;;;;0.60;0.60;;;;;;;15.01;91.18;96816.75;5065237;28;20407;-60
2023/06/02 04:08:38;;;;;;;0.70;0.70;;;;;;;15.03;89.45;96814.38;5067107;28;20049;-61
2023/06/02 04:11:05;;;;;;;0.70;0.70;;;;;;;15.22;89.12;96816.66;5082004;28;20511;-60
2023/06/02 04:13:32;;;;;;;0.60;0.60;;;;;;;15.45;86.67;96808.59;5067335;28;20059;-59
2023/06/02 04:15:59;;;;;;;0.70;0.70;;;;;;;15.26;86.17;96772.78;5066447;28;20044;-61
2023/06/02 04:18:27;;;;;;;0.60;0.60;;;;;;;15.14;85.55;96725.81;5067304;28;20059;-61
2023/06/02 04:20:54;;;;;;;0.70;0.70;;;;;;;15.80;84.55;96813.94;5066347;28;20052;-60
2023/06/02 04:23:21;;;;;;;0.70;0.70;;;;;;;15.94;84.54;96813.84;5081931;28;20416;-60
2023/06/02 04:25:48;;;;;;;0.70;0.70;;;;;;;16.15;84.40;96805.31;5064959;28;20052;-61
2023/06/02 04:28:15;;;;;;;0.70;0.70;;;;;;;16.35;82.82;96811.91;5064974;28;20059;-60
2023/06/02 04:30:42;;;;;;;0.70;0.70;;;;;;;16.46;81.89;96811.81;5066518;28;20439;-62
2023/06/02 04:33:09;;;;;;;0.77;0.77;;;;;;;16.54;81.85;96808.56;5066587;28;20048;-61
2023/06/02 04:35:36;;;;;;;0.70;0.70;;;;;;;16.77;81.80;96807.13;5066425;28;20056;-61
2023/06/02 04:38:03;;;;;;;0.70;0.70;;;;;;;16.93;80.95;96808.13;5066730;28;20514;-62
2023/06/02 04:40:30;;;;;;;0.70;0.70;;;;;;;16.92;81.03;96791.75;5066250;28;20052;-61
2023/06/02 04:42:58;;;;;;;0.80;0.80;;;;;;;17.19;80.06;96798.22;5065315;28;20049;-61
2023/06/02 04:45:27;;;;;;;0.70;0.70;;;;;;;17.05;79.35;96804.00;5065296;28;20052;-60
2023/06/02 04:47:53;;;;;;;0.80;0.80;;;;;;;16.86;80.35;96752.25;5066099;28;20618;-60
2023/06/02 04:50:20;;;;;;;0.80;0.80;;;;;;;17.33;79.55;96792.41;5066072;28;20052;-60
2023/06/02 04:52:47;;;;;;;0.70;0.70;;;;;;;17.14;79.76;96751.09;5065985;28;20571;-60
2023/06/02 04:55:14;;;;;;;0.70;0.70;;;;;;;17.51;79.77;96773.41;5065665;28;20075;-60
2023/06/02 04:57:41;;;;;;;0.70;0.70;;;;;;;17.79;78.35;96803.81;5064678;28;20059;-60
2023/06/02 05:00:10;;;;;;;0.70;0.70;;;;;;;17.92;77.42;96810.41;5065537;28;20407;-60
2023/06/02 05:02:37;;;;;;;0.70;0.70;;;;;;;18.09;76.13;96809.34;5066345;28;20048;-60
2023/06/02 05:05:05;;;;;;;0.70;0.70;;;;;;;18.23;74.73;96811.91;5066164;28;20788;-61
2023/06/02 05:07:32;;;;;;;0.80;0.80;;;;;;;18.41;75.27;96817.25;5066163;28;20102;-60
2023/06/02 05:09:59;;;;;;;0.80;0.80;;;;;;;18.29;75.57;96798.97;5065917;28;20040;-60
2023/06/02 05:12:25;;;;;;;0.80;0.80;;;;;;;18.26;75.99;96816.66;5064296;28;20048;-60
2023/06/02 05:14:53;;;;;;;0.70;0.70;;;;;;;18.31;76.41;96818.97;5065886;28;20135;-61
2023/06/02 05:17:27;;;;;;;0.70;0.70;;;;;;;18.42;76.87;96808.41;5064080;28;20056;-62
2023/06/02 05:19:55;;;;;;;0.70;0.70;;;;;;;18.62;76.00;96808.47;5065478;28;20048;-61
2023/06/02 05:22:22;;;;;;;0.70;0.70;;;;;;;18.67;76.39;96791.91;5065211;28;20484;-60
2023/06/02 05:24:49;;;;;;;0.80;0.80;;;;;;;18.64;75.68;96770.31;5065407;28;20511;-60
2023/06/02 05:27:16;;;;;;;0.80;0.80;;;;;;;18.99;74.62;96786.47;5063794;28;20106;-60
2023/06/02 05:29:42;;;;;;;0.70;0.70;;;;;;;19.24;74.15;96806.41;5065693;28;20071;-61
2023/06/02 05:32:10;;;;;;;0.70;0.70;;;;;;;19.15;73.64;96761.28;5065461;28;20432;-60
2023/06/02 05:34:39;;;;;;;0.75;0.75;;;;;;;19.62;73.09;96811.69;5063073;28;20132;-59
2023/06/02 05:37:05;;;;;;;0.80;0.80;;;;;;;19.15;72.53;96707.94;5063139;28;20491;-60
2023/06/02 05:39:32;;;;;;;0.70;0.70;;;;;;;19.89;71.57;96796.19;5065347;28;20113;-60
2023/06/02 05:41:59;;;;;;;0.82;0.82;;;;;;;19.35;71.06;96686.22;5061479;28;20373;-62
2023/06/02 05:44:26;;;;;;;0.80;0.80;;;;;;;20.09;71.31;96773.63;5057915;28;20159;-62
2023/06/02 05:46:52;;;;;;;0.80;0.80;;;;;;;19.97;71.14;96720.88;5056243;28;20083;-66
2023/06/02 05:49:19;;;;;;;0.82;0.82;;;;;;;20.50;69.74;96796.31;5062414;28;20529;-64
2023/06/02 05:51:46;;;;;;;0.80;0.80;;;;;;;20.65;69.42;96795.50;5060852;28;20044;-67
2023/06/02 05:54:13;;;;;;;0.80;0.80;;;;;;;20.83;68.75;96795.03;5055099;28;20098;-63
2023/06/02 05:56:40;;;;;;;0.80;0.80;;;;;;;20.89;68.68;96793.25;5062840;28;20442;-66
2023/06/02 05:59:09;;;;;;;0.80;0.80;;;;;;;20.52;69.11;96729.09;5047466;28;20088;-61
2023/06/02 06:01:36;;;;;;;0.90;0.90;;;;;;;20.98;69.13;96770.91;5044334;28;20053;-63
2023/06/02 06:04:02;;;;;;;0.90;0.90;;;;;;;19.48;69.35;96512.94;5044966;28;20617;-62
2023/06/02 06:06:30;;;;;;;0.90;0.90;;;;;;;21.35;69.17;96804.06;5055846;28;20126;-64
2023/06/02 06:08:57;;;;;;;0.90;0.90;;;;;;;21.45;68.78;96802.94;5056132;28;20082;-65
2023/06/02 06:11:24;;;;;;;1.00;1.00;;;;;;;21.51;67.73;96760.91;5057723;28;20048;-66
2023/06/02 06:13:51;;;;;;;1.00;1.00;;;;;;;21.81;64.69;96777.31;5047465;28;20060;-66
2023/06/02 06:16:18;;;;;;;0.90;0.90;;;;;;;22.13;63.72;96808.91;5044417;28;20484;-60
2023/06/02 06:18:45;;;;;;;0.82;0.82;;;;;;;21.41;64.52;96805.06;5062159;28;20044;-61
2023/06/02 06:21:13;;;;;;;0.90;0.90;;;;;;;21.65;64.85;96800.72;5063636;28;20060;-64
2023/06/02 06:23:39;;;;;;;1.00;1.00;;;;;;;21.92;61.42;96805.97;5054635;28;20060;-63
2023/06/02 06:26:06;;;;;;;1.00;1.00;;;;;;;22.00;61.21;96782.72;5061555;28;20574;-59
2023/06/02 06:28:33;;;;;;;0.90;0.90;;;;;;;22.40;62.50;96800.75;5051067;28;20053;-61
2023/06/02 06:31:00;;;;;;;0.90;0.90;;;;;;;22.34;62.04;96802.56;5051117;28;20045;-63
2023/06/02 06:33:29;;;;;;;0.90;0.90;;;;;;;22.17;59.82;96787.00;5043733;28;20049;-62
2023/06/02 06:35:55;;;;;;;1.00;1.00;;;;;;;22.30;58.87;96773.66;5054406;28;20041;-67
2023/06/02 06:38:22;;;;;;;0.90;0.90;;;;;;;22.56;58.82;96796.25;5061914;28;20056;-61
2023/06/02 06:40:49;;;;;;;1.02;1.02;;;;;;;22.86;57.25;96798.44;5061919;28;20059;-62
2023/06/02 06:43:15;;;;;;;1.00;1.00;;;;;;;22.99;56.54;96807.63;5056671;28;20048;-63
2023/06/02 06:45:50;;;;;;;1.17;1.17;;;;;;;23.13;55.77;96801.47;5062188;28;20063;-63
2023/06/02 06:48:17;;;;;;;0.90;0.90;;;;;;;23.19;55.83;96794.00;5042179;28;20052;-62
2023/06/02 06:50:44;;;;;;;1.00;1.00;;;;;;;23.37;56.34;96797.78;5060499;28;20438;-61
2023/06/02 06:53:11;;;;;;;1.05;1.05;;;;;;;23.41;56.58;96789.16;5062947;28;20067;-60
2023/06/02 06:55:38;;;;;;;1.20;1.20;;;;;;;22.45;56.92;96690.09;5050058;28;20087;-60
2023/06/02 06:58:05;;;;;;;1.13;1.13;;;;;;;23.36;57.56;96786.94;5060088;28;20113;-60
2023/06/02 07:00:32;;;;;;;1.20;1.20;;;;;;;22.99;58.50;96756.78;5063003;28;20055;-61
2023/06/02 07:02:58;;;;;;;1.20;1.20;;;;;;;23.38;56.90;96751.28;5060367;28;20048;-62
2023/06/02 07:05:25;;;;;;;1.13;1.13;;;;;;;23.84;54.91;96806.88;5054268;28;20166;-63
2023/06/02 07:07:52;;;;;;;1.05;1.05;;;;;;;23.75;53.74;96746.63;5057082;28;20143;-61
2023/06/02 07:10:19;;;;;;;1.10;1.10;;;;;;;23.39;55.25;96737.94;5049733;28;20672;-63
2023/06/02 07:12:46;;;;;;;1.30;1.30;;;;;;;23.74;55.61;96784.66;5049066;28;20055;-62
2023/06/02 07:15:12;;;;;;;1.10;1.10;;;;;;;24.08;53.08;96787.34;5044613;28;20068;-63
2023/06/02 07:17:40;;;;;;;1.20;1.20;;;;;;;23.35;53.37;96695.66;5055825;28;20488;-63
2023/06/02 07:20:11;;;;;;;1.10;1.10;;;;;;;23.46;53.60;96706.56;5048969;28;20071;-61
2023/06/02 07:22:39;;;;;;;1.15;1.15;;;;;;;24.30;52.59;96793.72;5060685;28;20052;-61
2023/06/02 07:25:06;;;;;;;1.17;1.17;;;;;;;23.30;51.89;96771.81;5047450;28;20512;-62
2023/06/02 07:27:34;;;;;;;1.10;1.10;;;;;;;23.83;52.25;96796.81;5057759;28;20572;-62
2023/06/02 07:30:02;;;;;;;1.20;1.20;;;;;;;24.26;50.86;96798.78;5077040;28;20110;-63
2023/06/02 07:32:29;;;;;;;1.05;1.05;;;;;;;23.79;49.33;96773.53;5052120;28;20044;-60
2023/06/02 07:34:55;;;;;;;1.30;1.30;;;;;;;24.13;48.24;96771.81;5055468;28;20048;-60
2023/06/02 07:37:22;;;;;;;1.10;1.10;;;;;;;23.96;50.96;96774.09;5061963;28;20511;-65
2023/06/02 07:39:49;;;;;;;1.25;1.25;;;;;;;23.61;52.40;96793.22;5059932;28;20043;-61
2023/06/02 07:42:16;;;;;;;1.30;1.30;;;;;;;23.76;50.54;96702.94;5058145;28;20459;-62
2023/06/02 07:44:42;;;;;;;1.20;1.20;;;;;;;23.96;49.95;96731.63;5082353;28;20051;-61
2023/06/02 07:47:10;;;;;;;1.15;1.15;;;;;;;24.69;47.64;96798.59;5064296;28;20523;-60
2023/06/02 07:49:37;;;;;;;1.23;1.23;;;;;;;22.54;48.96;96527.69;5066899;28;20062;-63
2023/06/02 07:52:05;;;;;;;1.10;1.10;;;;;;;23.76;49.58;96787.78;5065276;28;20071;-63
2023/06/02 07:54:32;;;;;;;1.20;1.20;;;;;;;23.39;49.37;96650.31;5064926;28;21078;-61
2023/06/02 07:56:58;;;;;;;1.27;1.27;;;;;;;24.24;49.91;96787.13;5048671;28;20064;-62
2023/06/02 07:59:25;;;;;;;1.35;1.35;;;;;;;24.01;48.62;96688.59;5050653;28;20503;-63
2023/06/02 08:01:52;;;;;;;1.20;1.20;;;;;;;24.77;49.18;96788.53;5055321;28;20063;-61
2023/06/02 08:04:19;;;;;;;1.30;1.30;;;;;;;23.90;50.08;96691.03;5066670;28;20135;-63
2023/06/02 08:06:45;;;;;;;1.30;1.30;;;;;;;24.53;47.99;96745.00;5056751;28;20060;-68
2023/06/02 08:09:14;;;;;;;1.30;1.30;;;;;;;24.55;45.66;96708.50;5060446;28;20060;-66
2023/06/02 08:11:41;;;;;;;1.30;1.30;;;;;;;24.41;45.36;96652.50;5054668;28;20095;-62
2023/06/02 08:14:08;;;;;;;1.23;1.23;;;;;;;24.94;43.67;96775.63;5062411;28;20052;-62
2023/06/02 08:16:35;;;;;;;1.20;1.20;;;;;;;24.91;44.67;96725.56;5048704;28;20061;-65
2023/06/02 08:19:25;;;;;;;1.35;1.35;;;;;;;25.18;43.64;96696.41;5046566;28;20071;-62
2023/06/02 08:21:52;;;;;;;1.20;1.20;;;;;;;25.35;44.25;96696.88;5064243;28;20064;-65
2023/06/02 08:24:20;;;;;;;1.30;1.30;;;;;;;25.96;43.83;96758.78;5046193;28;20078;-62
2023/06/02 08:26:48;;;;;;;1.38;1.38;;;;;;;25.85;44.22;96707.44;5047445;28;20084;-63
2023/06/02 08:29:15;;;;;;;1.50;1.50;;;;;;;26.44;43.52;96764.16;5049665;28;20052;-64
2023/06/02 08:31:42;;;;;;;1.30;1.30;;;;;;;26.49;44.31;96765.53;5060534;28;20052;-64
2023/06/02 08:34:10;;;;;;;1.42;1.42;;;;;;;26.63;41.97;96756.28;5060970;28;20055;-64
2023/06/02 08:36:37;;;;;;;1.40;1.40;;;;;;;26.37;41.78;96704.81;5078857;28;20525;-60
2023/06/02 08:39:07;;;;;;;1.40;1.40;;;;;;;26.09;42.72;96708.31;5053526;28;20582;-64
2023/06/02 08:41:39;;;;;;;1.33;1.33;;;;;;;26.80;43.62;96754.63;5058604;28;20048;-62
2023/06/02 08:44:06;;;;;;;1.60;1.60;;;;;;;27.14;42.77;96742.66;5081506;28;20044;-67
2023/06/02 08:46:33;;;;;;;1.60;1.60;;;;;;;26.36;43.46;96696.78;5058261;28;20108;-65
2023/06/02 08:49:01;;;;;;;1.48;1.48;;;;;;;26.22;42.47;96703.19;5056839;28;20059;-65
2023/06/02 08:51:32;;;;;;;1.48;1.48;;;;;;;26.68;42.62;96741.44;5059889;28;20102;-62
2023/06/02 08:54:02;;;;;;;1.40;1.40;;;;;;;27.02;41.26;96740.88;5077968;28;20049;-61
2023/06/02 08:56:29;;;;;;;1.42;1.42;;;;;;;26.72;40.63;96742.03;5057361;28;20582;-63
2023/06/02 08:58:55;;;;;;;1.50;1.50;;;;;;;25.97;40.75;96664.63;5052753;28;20040;-72
2023/06/02 09:01:22;;;;;;;1.50;1.50;;;;;;;26.93;41.58;96729.56;5065592;28;20102;-61
2023/06/02 09:03:49;;;;;;;1.40;1.40;;;;;;;27.36;41.50;96733.81;5060183;28;20585;-65
2023/06/02 09:06:21;;;;;;;1.30;1.30;;;;;;;26.12;42.30;96735.72;5058192;28;20101;-61
2023/06/02 09:09:01;;;;;;;1.33;1.33;;;;;;;26.26;43.82;96695.25;5054553;28;20040;-68
2023/06/02 09:11:29;;;;;;;1.25;1.25;;;;;;;25.58;43.08;96707.53;5048221;28;20045;-62
2023/06/02 09:13:57;;;;;;;1.40;1.40;;;;;;;26.32;42.63;96722.53;5055559;28;20048;-63
2023/06/02 09:16:38;;;;;;;1.45;1.45;;;;;;;26.86;41.64;96715.72;5063328;28;20048;-64
2023/06/02 09:19:05;;;;;;;1.40;1.40;;;;;;;25.42;41.13;96407.25;5065452;28;20056;-61
2023/06/02 09:21:33;;;;;;;1.50;1.50;;;;;;;27.85;40.62;96713.97;5065505;28;20053;-64
2023/06/02 09:24:02;;;;;;;1.55;1.55;;;;;;;27.98;41.24;96712.41;5063963;28;20055;-62
2023/06/02 09:26:49;;;;;;;1.77;1.77;;;;;;;27.70;41.17;96707.50;5065769;28;20491;-63
2023/06/02 09:29:15;;;;;;;1.55;1.55;;;;;;;27.58;40.01;96628.91;5064039;28;20128;-62
2023/06/02 09:31:52;;;;;;;1.58;1.58;;;;;;;28.26;39.64;96710.00;5063838;28;20048;-65
2023/06/02 09:34:21;;;;;;;1.60;1.60;;;;;;;28.11;40.11;96706.38;5047378;28;20064;-63
2023/06/02 09:36:51;;;;;;;1.73;1.73;;;;;;;28.34;39.93;96710.38;5058781;28;20148;-62
2023/06/02 09:39:35;;;;;;;1.50;1.50;;;;;;;28.28;40.33;96718.81;5043194;28;20057;-62
2023/06/02 09:42:02;;;;;;;1.75;1.75;;;;;;;26.77;39.56;96453.50;5059182;28;20044;-63
2023/06/02 09:44:29;;;;;;;1.80;1.80;;;;;;;27.96;39.21;96646.59;5060459;28;20132;-65
2023/06/02 09:46:56;;;;;;;1.70;1.70;;;;;;;27.69;39.79;96624.19;5047947;28;20435;-65
2023/06/02 09:49:23;;;;;;;1.50;1.50;;;;;;;28.71;39.95;96695.09;5052392;28;20057;-64
2023/06/02 09:51:50;;;;;;;1.60;1.60;;;;;;;27.95;37.79;96582.41;5043337;28;20053;-64
2023/06/02 09:54:17;;;;;;;1.60;1.60;;;;;;;27.84;40.48;96679.03;5056075;28;20586;-62
2023/06/02 09:56:46;;;;;;;1.60;1.60;;;;;;;28.22;38.64;96614.63;5062877;28;20277;-63
2023/06/02 09:59:13;;;;;;;1.70;1.70;;;;;;;28.82;38.63;96688.75;5060324;28;20145;-62
2023/06/02 10:01:41;;;;;;;1.65;1.65;;;;;;;28.94;38.14;96682.69;5058537;28;20135;-66
2023/06/02 10:04:10;;;;;;;1.42;1.42;;;;;;;26.68;40.01;96593.66;5056506;28;20086;-69
2023/06/02 10:06:43;;;;;;;1.50;1.50;;;;;;;26.71;39.74;96609.72;5080175;28;20047;-64
2023/06/02 10:09:41;;;;;;;1.70;1.70;;;;;;;27.42;41.27;96687.09;5064367;28;20137;-60
2023/06/02 10:12:27;;;;;;;1.50;1.50;;;;;;;25.53;40.35;96484.09;5060166;28;20318;-70
2023/06/02 10:15:00;;;;;;;1.63;1.63;;;;;;;27.24;40.88;96683.63;5051891;28;20064;-67
2023/06/02 10:17:33;;;;;;;1.70;1.70;;;;;;;27.46;39.28;96678.34;5058115;28;20152;-61
2023/06/02 10:20:22;;;;;;;1.55;1.55;;;;;;;27.73;40.07;96670.28;5048627;28;20052;-59
2023/06/02 10:23:14;;;;;;;1.70;1.70;;;;;;;28.36;39.39;96662.22;5043537;28;20412;-61
2023/06/02 10:25:59;;;;;;;1.50;1.50;;;;;;;28.15;39.83;96658.56;5043116;28;20497;-61
2023/06/02 10:28:29;;;;;;;1.50;1.50;;;;;;;28.67;38.57;96620.41;5039114;28;20049;-61
2023/06/02 10:31:11;;;;;;;1.70;1.70;;;;;;;29.20;37.32;96619.97;5062822;28;20057;-61
2023/06/02 10:33:41;;;;;;;1.70;1.70;;;;;;;28.75;37.74;96654.97;5062960;28;20044;-60
2023/06/02 10:36:08;;;;;;;1.65;1.65;;;;;;;28.51;39.20;96658.03;5063619;28;20052;-62
2023/06/02 10:38:36;;;;;;;1.70;1.70;;;;;;;29.28;38.29;96652.47;5064166;28;20297;-60
2023/06/02 10:41:03;;;;;;;1.90;1.90;;;;;;;29.18;39.35;96642.53;5063701;28;20052;-60
2023/06/02 10:43:32;;;;;;;1.80;1.80;;;;;;;29.09;38.47;96629.19;5064014;28;20569;-60
2023/06/02 10:46:16;;;;;;;1.67;1.67;;;;;;;29.30;37.62;96644.97;5063065;28;20041;-63
2023/06/02 10:48:43;;;;;;;1.70;1.70;;;;;;;29.22;38.73;96643.06;5063710;28;20129;-61
2023/06/02 10:51:12;;;;;;;1.60;1.60;;;;;;;29.10;38.59;96615.72;5078792;28;20052;-64
2023/06/02 10:54:04;;;;;;;1.73;1.73;;;;;;;28.65;39.42;96639.28;5074496;28;20066;-63
2023/06/02 10:56:40;;;;;;;1.70;1.70;;;;;;;28.22;39.82;96634.56;5065156;28;20133;-59
2023/06/02 10:59:08;;;;;;;1.60;1.60;;;;;;;27.58;41.05;96564.22;5073640;28;20041;-62
2023/06/02 11:01:51;;;;;;;1.60;1.60;;;;;;;28.70;40.08;96624.31;5080380;28;20052;-63
2023/06/02 11:04:25;;;;;;;1.80;1.80;;;;;;;28.48;38.69;96515.75;5077715;28;20463;-62
2023/06/02 11:07:15;;;;;;;1.83;1.83;;;;;;;29.24;38.15;96626.25;5082477;28;20097;-63
2023/06/02 11:09:43;;;;;;;1.70;1.70;;;;;;;28.47;38.98;96505.59;5079538;28;20048;-62
2023/06/02 11:12:10;;;;;;;1.60;1.60;;;;;;;28.35;37.66;96435.50;5064682;28;20612;-61
2023/06/02 11:15:06;;;;;;;1.70;1.70;;;;;;;29.98;37.33;96616.50;5072703;28;20044;-64
2023/06/02 11:17:34;;;;;;;1.60;1.60;;;;;;;30.25;36.22;96610.19;5081702;28;20056;-63
2023/06/02 11:20:05;;;;;;;1.77;1.77;;;;;;;30.38;35.50;96584.78;5070316;28;20072;-65
2023/06/02 11:22:33;;;;;;;1.75;1.75;;;;;;;30.38;35.43;96613.34;5069631;28;20463;-62
2023/06/02 11:25:01;;;;;;;1.75;1.75;;;;;;;29.56;36.21;96567.84;5069640;28;20067;-64
2023/06/02 11:27:39;;;;;;;1.70;1.70;;;;;;;30.01;35.75;96601.19;5064330;28;20088;-63
2023/06/02 11:30:11;;;;;;;1.77;1.77;;;;;;;29.99;35.14;96558.03;5064055;28;20059;-63
2023/06/02 11:32:38;;;;;;;1.77;1.77;;;;;;;30.54;36.07;96572.63;5070292;28;20055;-64
2023/06/02 11:35:07;;;;;;;1.77;1.77;;;;;;;29.33;34.21;96340.66;5079077;28;20051;-66
2023/06/02 11:37:40;;;;;;;1.40;1.40;;;;;;;30.72;34.67;96586.47;5081323;28;20106;-63
2023/06/02 11:40:10;;;;;;;;;;;;;;;29.80;34.97;96579.75;5071774;28;20045;-62
2023/06/02 11:42:38;;;;;;;1.52;1.52;;;;;;;28.89;36.27;96582.78;5071363;28;20310;-63